createdAt,value
2022-10-25T00:00:21.051Z,92.06
2022-10-25T00:02:14.390Z,91.96
2022-10-25T00:03:14.283Z,92.15
2022-10-25T00:05:07.459Z,91.49
2022-10-25T00:06:07.507Z,92.15
2022-10-25T00:08:11.566Z,91.67
2022-10-25T00:09:11.597Z,91.86
2022-10-25T00:11:15.676Z,92.73
2022-10-25T00:12:15.678Z,92.73
2022-10-25T00:14:08.876Z,92.63
2022-10-25T00:15:08.876Z,92.73
2022-10-25T00:17:02.112Z,93.02
2022-10-25T00:18:02.149Z,93.02
2022-10-25T00:19:55.243Z,93.02
2022-10-25T00:20:55.304Z,93.21
2022-10-25T00:22:48.842Z,92.92
2022-10-25T00:23:48.504Z,93.30
2022-10-25T00:25:41.686Z,93.30
2022-10-25T00:26:41.678Z,93.30
2022-10-25T00:28:34.849Z,92.82
2022-10-25T00:29:34.880Z,93.11
2022-10-25T00:31:28.074Z,93.98
2022-10-25T00:32:28.077Z,93.98
2022-10-25T00:34:32.152Z,94.40
2022-10-25T00:35:32.188Z,94.60
2022-10-25T00:37:36.286Z,94.40
2022-10-25T00:38:36.271Z,94.50
2022-10-25T00:40:40.345Z,94.21
2022-10-25T00:41:40.373Z,95.07
2022-10-25T00:43:33.547Z,94.60
2022-10-25T00:44:33.584Z,94.50
2022-10-25T00:46:26.560Z,94.79
2022-10-25T00:47:26.587Z,94.60
2022-10-25T00:49:30.670Z,94.40
2022-10-25T00:50:30.700Z,94.50
2022-10-25T00:52:34.797Z,94.50
2022-10-25T00:53:34.822Z,94.40
2022-10-25T00:55:27.998Z,94.69
2022-10-25T00:56:28.044Z,94.50
2022-10-25T00:58:21.202Z,94.60
2022-10-25T00:59:21.228Z,94.79
2022-10-25T01:01:14.631Z,95.17
2022-10-25T01:02:14.583Z,95.27
2022-10-25T01:04:18.581Z,94.40
2022-10-25T01:05:18.611Z,95.46
2022-10-25T01:07:22.692Z,95.36
2022-10-25T01:08:22.712Z,95.56
2022-10-25T01:10:26.762Z,95.94
2022-10-25T01:11:26.793Z,95.65
2022-10-25T01:13:19.970Z,96.13
2022-10-25T01:14:19.998Z,96.13
2022-10-25T01:16:12.999Z,95.56
2022-10-25T01:17:13.031Z,95.27
2022-10-25T01:19:17.097Z,95.84
2022-10-25T01:20:17.128Z,95.56
2022-10-25T01:22:10.295Z,96.32
2022-10-25T01:23:10.324Z,95.94
2022-10-25T01:25:03.519Z,95.56
2022-10-25T01:26:03.518Z,95.94
2022-10-25T01:28:56.720Z,95.36
2022-10-25T01:30:49.901Z,96.22
2022-10-25T01:31:49.914Z,95.84
2022-10-25T01:33:43.097Z,96.13
2022-10-25T01:34:43.127Z,95.27
2022-10-25T01:36:36.107Z,95.17
2022-10-25T01:37:36.136Z,95.36
2022-10-25T01:39:40.232Z,95.56
2022-10-25T01:40:40.265Z,96.22
2022-10-25T01:42:33.438Z,95.94
2022-10-25T01:43:33.459Z,95.94
2022-10-25T01:45:26.627Z,95.94
2022-10-25T01:46:26.670Z,96.70
2022-10-25T01:48:30.728Z,95.94
2022-10-25T01:49:30.754Z,96.03
2022-10-25T01:51:23.938Z,95.84
2022-10-25T01:52:23.961Z,96.22
2022-10-25T01:54:17.131Z,96.32
2022-10-25T01:55:17.158Z,96.13
2022-10-25T01:57:10.332Z,95.94
2022-10-25T01:58:10.362Z,96.13
2022-10-25T02:00:03.668Z,95.65
2022-10-25T02:01:03.764Z,96.51
2022-10-25T02:02:56.835Z,96.03
2022-10-25T02:03:56.861Z,96.13
2022-10-25T02:05:50.060Z,95.36
2022-10-25T02:06:50.060Z,96.13
2022-10-25T02:08:43.264Z,95.84
2022-10-25T02:09:43.264Z,95.84
2022-10-25T02:11:36.437Z,96.13
2022-10-25T02:12:36.469Z,96.13
2022-10-25T02:14:29.632Z,95.46
2022-10-25T02:15:29.665Z,96.32
2022-10-25T02:17:22.837Z,95.84
2022-10-25T02:18:22.895Z,95.94
2022-10-25T02:20:16.031Z,95.94
2022-10-25T02:21:16.062Z,95.84
2022-10-25T02:23:20.154Z,95.56
2022-10-25T02:24:20.177Z,95.56
2022-10-25T02:26:13.170Z,95.07
2022-10-25T02:27:13.187Z,94.79
2022-10-25T02:29:06.367Z,94.79
2022-10-25T02:30:06.395Z,94.98
2022-10-25T02:31:59.601Z,94.69
2022-10-25T02:32:59.601Z,94.60
2022-10-25T02:34:52.771Z,94.60
2022-10-25T02:35:52.804Z,95.17
2022-10-25T02:37:46.249Z,94.89
2022-10-25T02:38:45.998Z,95.17
2022-10-25T02:40:39.171Z,95.17
2022-10-25T02:41:39.197Z,94.21
2022-10-25T02:43:32.367Z,94.60
2022-10-25T02:44:32.398Z,94.21
2022-10-25T02:46:25.499Z,94.89
2022-10-25T02:47:25.502Z,94.79
2022-10-25T02:49:18.704Z,94.69
2022-10-25T02:50:18.701Z,94.40
2022-10-25T02:52:11.896Z,94.69
2022-10-25T02:53:11.898Z,94.40
2022-10-25T02:55:05.170Z,94.50
2022-10-25T02:56:05.098Z,94.31
2022-10-25T02:57:58.273Z,93.45
2022-10-25T02:58:58.305Z,93.74
2022-10-25T03:00:51.568Z,93.54
2022-10-25T03:01:51.545Z,93.64
2022-10-25T03:03:44.675Z,93.74
2022-10-25T03:04:44.707Z,93.83
2022-10-25T03:06:37.725Z,93.64
2022-10-25T03:07:37.720Z,93.64
2022-10-25T03:09:30.907Z,93.74
2022-10-25T03:10:30.927Z,93.83
2022-10-25T03:12:35.001Z,93.83
2022-10-25T03:13:35.026Z,94.02
2022-10-25T03:15:28.193Z,93.93
2022-10-25T03:16:28.226Z,94.12
2022-10-25T03:18:21.391Z,93.83
2022-10-25T03:19:21.419Z,93.93
2022-10-25T03:21:14.629Z,93.45
2022-10-25T03:22:14.616Z,94.02
2022-10-25T03:24:07.863Z,93.83
2022-10-25T03:27:00.825Z,93.83
2022-10-25T03:28:00.856Z,93.93
2022-10-25T03:29:54.022Z,93.74
2022-10-25T03:30:54.050Z,93.74
2022-10-25T03:32:47.225Z,94.12
2022-10-25T03:33:47.252Z,93.74
2022-10-25T03:35:40.416Z,93.74
2022-10-25T03:36:40.456Z,93.83
2022-10-25T03:38:33.657Z,93.83
2022-10-25T03:39:33.646Z,93.83
2022-10-25T03:41:26.619Z,94.69
2022-10-25T03:42:26.648Z,94.21
2022-10-25T03:44:19.855Z,93.83
2022-10-25T03:45:19.887Z,94.02
2022-10-25T03:47:35.038Z,94.02
2022-10-25T03:48:35.065Z,93.93
2022-10-25T03:50:28.085Z,93.35
2022-10-25T03:51:28.093Z,93.54
2022-10-25T03:53:21.296Z,93.16
2022-10-25T03:54:24.315Z,92.87
2022-10-25T03:56:14.342Z,92.68
2022-10-25T03:57:14.343Z,92.87
2022-10-25T03:59:07.515Z,92.49
2022-10-25T04:00:07.549Z,92.78
2022-10-25T04:02:00.811Z,92.49
2022-10-25T04:03:02.576Z,91.82
2022-10-25T04:04:53.797Z,92.11
2022-10-25T04:05:53.826Z,91.82
2022-10-25T04:07:47.125Z,92.15
2022-10-25T04:08:46.869Z,92.11
2022-10-25T04:11:02.016Z,91.63
2022-10-25T04:12:02.042Z,91.53
2022-10-25T04:13:55.246Z,90.96
2022-10-25T04:14:55.231Z,90.77
2022-10-25T04:16:48.267Z,91.05
2022-10-25T04:17:48.456Z,90.77
2022-10-25T04:19:41.469Z,91.25
2022-10-25T04:20:41.497Z,90.48
2022-10-25T04:22:34.551Z,90.77
2022-10-25T04:23:34.559Z,90.77
2022-10-25T04:25:27.758Z,90.77
2022-10-25T04:26:27.755Z,90.77
2022-10-25T04:28:21.017Z,90.67
2022-10-25T04:29:21.046Z,90.86
2022-10-25T04:31:25.163Z,90.29
2022-10-25T04:32:25.163Z,90.39
2022-10-25T04:34:18.364Z,90.19
2022-10-25T04:35:18.392Z,90.19
2022-10-25T04:37:11.559Z,89.90
2022-10-25T04:38:11.588Z,89.62
2022-10-25T04:40:04.762Z,90.19
2022-10-25T04:41:04.794Z,90.39
2022-10-25T04:42:58.008Z,90.19
2022-10-25T04:43:58.033Z,90.09
2022-10-25T04:45:51.245Z,89.62
2022-10-25T04:46:51.277Z,89.62
2022-10-25T04:48:55.347Z,90.19
2022-10-25T04:49:55.375Z,90.09
2022-10-25T04:51:48.617Z,90.19
2022-10-25T04:52:48.957Z,89.81
2022-10-25T04:54:41.746Z,90.19
2022-10-25T04:55:41.777Z,90.29
2022-10-25T04:57:45.866Z,89.62
2022-10-25T04:58:45.870Z,90.19
2022-10-25T05:00:49.944Z,90.19
2022-10-25T05:03:43.171Z,90.09
2022-10-25T05:04:43.171Z,90.58
2022-10-25T05:06:36.167Z,90.19
2022-10-25T05:07:36.197Z,90.67
2022-10-25T05:09:29.212Z,90.39
2022-10-25T05:10:29.210Z,90.19
2022-10-25T05:12:22.408Z,90.19
2022-10-25T05:13:22.415Z,89.90
2022-10-25T05:15:26.524Z,90.39
2022-10-25T05:16:26.528Z,90.09
2022-10-25T05:18:19.697Z,90.19
2022-10-25T05:19:19.724Z,90.19
2022-10-25T05:21:23.834Z,90.39
2022-10-25T05:22:23.813Z,90.09
2022-10-25T05:24:27.878Z,89.81
2022-10-25T05:25:27.908Z,90.39
2022-10-25T05:27:21.119Z,90.39
2022-10-25T05:28:21.103Z,90.86
2022-10-25T05:30:25.189Z,90.67
2022-10-25T05:31:25.203Z,90.77
2022-10-25T05:33:18.419Z,90.67
2022-10-25T05:34:18.423Z,90.86
2022-10-25T05:36:11.438Z,90.48
2022-10-25T05:37:11.438Z,90.48
2022-10-25T05:39:15.507Z,91.25
2022-10-25T05:40:15.538Z,91.34
2022-10-25T05:42:08.706Z,91.53
2022-10-25T05:43:08.739Z,91.63
2022-10-25T05:45:01.912Z,91.15
2022-10-25T05:46:01.938Z,91.44
2022-10-25T05:48:06.021Z,91.53
2022-10-25T05:49:06.047Z,91.68
2022-10-25T05:51:28.690Z,91.39
2022-10-25T05:52:10.175Z,91.82
2022-10-25T05:54:14.270Z,91.87
2022-10-25T05:55:14.282Z,91.82
2022-10-25T05:57:07.441Z,92.16
2022-10-25T05:58:07.473Z,92.16
2022-10-25T06:00:00.685Z,92.54
2022-10-25T06:01:00.726Z,92.44
2022-10-25T06:02:53.834Z,92.25
2022-10-25T06:03:53.866Z,92.83
2022-10-25T06:05:47.040Z,92.63
2022-10-25T06:06:47.068Z,92.44
2022-10-25T06:08:40.294Z,92.73
2022-10-25T06:09:40.324Z,92.54
2022-10-25T06:11:33.513Z,92.83
2022-10-25T06:12:33.535Z,92.83
2022-10-25T06:14:37.656Z,93.21
2022-10-25T06:15:37.653Z,93.12
2022-10-25T06:17:30.827Z,93.12
2022-10-25T06:18:30.867Z,93.30
2022-10-25T06:20:35.037Z,93.21
2022-10-25T06:21:34.968Z,92.73
2022-10-25T06:23:27.975Z,93.40
2022-10-25T06:24:27.997Z,93.40
2022-10-25T06:26:21.017Z,93.30
2022-10-25T06:27:21.043Z,93.50
2022-10-25T06:29:25.148Z,93.50
2022-10-25T06:30:25.194Z,93.21
2022-10-25T06:32:40.353Z,93.40
2022-10-25T06:33:40.387Z,93.21
2022-10-25T06:35:33.844Z,93.40
2022-10-25T06:36:33.872Z,93.21
2022-10-25T06:37:33.907Z,93.40
2022-10-25T06:38:33.943Z,93.98
2022-10-25T06:39:33.977Z,93.69
2022-10-25T06:40:34.010Z,93.30
2022-10-25T06:41:34.043Z,93.59
2022-10-25T06:42:34.078Z,94.17
2022-10-25T06:43:34.110Z,94.45
2022-10-25T06:44:34.199Z,94.65
2022-10-25T06:45:34.180Z,94.65
2022-10-25T06:46:34.213Z,94.55
2022-10-25T06:47:34.249Z,94.07
2022-10-25T06:48:34.605Z,94.26
2022-10-25T06:49:34.316Z,94.17
2022-10-25T06:50:34.353Z,94.07
2022-10-25T06:51:34.384Z,94.36
2022-10-25T06:52:34.419Z,94.26
2022-10-25T06:53:34.453Z,93.59
2022-10-25T06:54:34.486Z,94.17
2022-10-25T06:55:34.520Z,94.55
2022-10-25T06:56:34.604Z,93.69
2022-10-25T06:57:34.588Z,93.88
2022-10-25T06:58:34.621Z,94.07
2022-10-25T06:59:34.655Z,94.07
2022-10-25T07:00:34.692Z,94.02
2022-10-25T07:01:34.809Z,93.93
2022-10-25T07:02:34.758Z,94.45
2022-10-25T07:03:34.801Z,93.79
2022-10-25T07:04:34.843Z,93.79
2022-10-25T07:05:34.863Z,93.69
2022-10-25T07:06:34.900Z,94.12
2022-10-25T07:07:34.930Z,93.79
2022-10-25T07:08:34.962Z,93.88
2022-10-25T07:09:34.998Z,93.30
2022-10-25T07:10:35.032Z,94.02
2022-10-25T07:11:35.066Z,93.69
2022-10-25T07:12:35.107Z,93.88
2022-10-25T07:13:35.142Z,93.74
2022-10-25T07:14:35.169Z,93.93
2022-10-25T07:15:37.458Z,93.98
2022-10-25T07:16:35.237Z,93.54
2022-10-25T07:17:35.270Z,93.35
2022-10-25T07:18:35.305Z,94.21
2022-10-25T07:19:35.339Z,93.26
2022-10-25T07:20:35.372Z,93.54
2022-10-25T07:21:35.410Z,92.97
2022-10-25T07:22:35.440Z,93.16
2022-10-25T07:23:35.473Z,93.45
2022-10-25T07:24:35.510Z,93.26
2022-10-25T07:25:35.543Z,93.26
2022-10-25T07:26:35.576Z,93.83
2022-10-25T07:27:35.611Z,93.16
2022-10-25T07:28:35.646Z,93.93
2022-10-25T07:29:35.679Z,93.54
2022-10-25T07:30:35.715Z,93.93
2022-10-25T07:31:35.753Z,94.12
2022-10-25T07:32:40.109Z,93.93
2022-10-25T07:33:35.820Z,94.60
2022-10-25T07:34:35.850Z,96.51
2022-10-25T07:35:42.128Z,96.51
2022-10-25T07:36:35.919Z,98.05
2022-10-25T07:37:35.967Z,96.80
2022-10-25T07:38:35.987Z,97.18
2022-10-25T07:39:36.021Z,96.32
2022-10-25T07:40:36.057Z,96.13
2022-10-25T07:41:36.089Z,96.51
2022-10-25T07:42:36.124Z,96.66
2022-10-25T07:43:36.160Z,96.75
2022-10-25T07:44:36.243Z,97.38
2022-10-25T07:45:36.230Z,97.90
2022-10-25T07:46:36.263Z,97.23
2022-10-25T07:47:36.306Z,98.28
2022-10-25T07:48:36.330Z,97.80
2022-10-25T07:49:36.366Z,97.90
2022-10-25T07:50:36.402Z,97.52
2022-10-25T07:51:36.432Z,98.28
2022-10-25T07:52:36.469Z,97.71
2022-10-25T07:53:36.502Z,97.23
2022-10-25T07:54:36.575Z,96.84
2022-10-25T07:55:36.573Z,96.84
2022-10-25T07:56:36.607Z,95.98
2022-10-25T07:57:36.643Z,95.89
2022-10-25T07:58:36.680Z,95.98
2022-10-25T07:59:36.708Z,96.84
2022-10-25T08:00:36.746Z,96.18
2022-10-25T08:01:37.063Z,95.89
2022-10-25T08:02:36.821Z,95.79
2022-10-25T08:03:36.845Z,95.89
2022-10-25T08:04:36.892Z,96.18
2022-10-25T08:05:36.914Z,95.89
2022-10-25T08:06:36.962Z,97.23
2022-10-25T08:07:36.985Z,96.75
2022-10-25T08:08:37.022Z,96.94
2022-10-25T08:09:38.885Z,96.37
2022-10-25T08:10:37.091Z,96.66
2022-10-25T08:11:37.123Z,96.56
2022-10-25T08:12:37.157Z,96.75
2022-10-25T08:13:37.210Z,97.23
2022-10-25T08:14:40.748Z,96.84
2022-10-25T08:15:37.267Z,96.37
2022-10-25T08:16:37.306Z,96.75
2022-10-25T08:17:37.346Z,97.04
2022-10-25T08:18:37.365Z,96.84
2022-10-25T08:19:37.399Z,97.04
2022-10-25T08:21:01.315Z,96.94
2022-10-25T08:21:37.481Z,97.04
2022-10-25T08:22:37.501Z,96.75
2022-10-25T08:23:37.537Z,96.84
2022-10-25T08:24:37.574Z,96.75
2022-10-25T08:25:37.614Z,96.56
2022-10-25T08:26:37.640Z,96.75
2022-10-25T08:27:37.676Z,96.08
2022-10-25T08:28:37.710Z,96.66
2022-10-25T08:29:37.749Z,96.27
2022-10-25T08:30:37.777Z,96.66
2022-10-25T08:31:37.868Z,96.08
2022-10-25T08:32:37.848Z,95.98
2022-10-25T08:33:37.886Z,96.18
2022-10-25T08:34:37.918Z,96.08
2022-10-25T08:35:37.955Z,96.27
2022-10-25T08:36:37.986Z,96.18
2022-10-25T08:37:38.022Z,96.18
2022-10-25T08:38:38.056Z,95.60
2022-10-25T08:39:38.091Z,95.03
2022-10-25T08:40:38.126Z,95.12
2022-10-25T08:41:38.163Z,95.22
2022-10-25T08:42:38.196Z,94.64
2022-10-25T08:43:38.234Z,95.31
2022-10-25T08:44:38.264Z,95.31
2022-10-25T08:45:38.322Z,95.12
2022-10-25T08:46:38.338Z,95.51
2022-10-25T08:47:38.369Z,95.03
2022-10-25T08:48:38.403Z,94.93
2022-10-25T08:49:38.448Z,94.45
2022-10-25T08:50:38.471Z,94.55
2022-10-25T08:51:38.509Z,94.74
2022-10-25T08:52:38.542Z,94.45
2022-10-25T08:53:38.578Z,95.22
2022-10-25T08:54:38.611Z,94.26
2022-10-25T08:55:41.775Z,95.22
2022-10-25T08:56:46.644Z,95.03
2022-10-25T08:57:38.722Z,94.45
2022-10-25T08:58:38.748Z,94.45
2022-10-25T08:59:38.784Z,94.64
2022-10-25T09:00:38.833Z,95.51
2022-10-25T09:01:38.959Z,94.98
2022-10-25T09:02:38.889Z,94.69
2022-10-25T09:04:38.958Z,94.69
2022-10-25T09:05:38.992Z,94.40
2022-10-25T09:06:39.026Z,93.63
2022-10-25T09:07:40.719Z,93.83
2022-10-25T09:08:39.108Z,93.93
2022-10-25T09:09:39.132Z,94.12
2022-10-25T09:10:39.165Z,93.63
2022-10-25T09:11:39.201Z,93.26
2022-10-25T09:12:39.235Z,93.35
2022-10-25T09:13:39.276Z,93.06
2022-10-25T09:14:39.303Z,92.30
2022-10-25T09:15:42.124Z,92.49
2022-10-25T09:16:39.372Z,93.35
2022-10-25T09:17:39.410Z,93.35
2022-10-25T09:18:39.441Z,92.58
2022-10-25T09:19:39.488Z,92.30
2022-10-25T09:20:39.512Z,92.87
2022-10-25T09:21:39.551Z,92.58
2022-10-25T09:22:39.583Z,92.77
2022-10-25T09:23:39.618Z,92.68
2022-10-25T09:24:39.652Z,92.68
2022-10-25T09:25:39.688Z,92.77
2022-10-25T09:26:39.720Z,92.68
2022-10-25T09:27:39.757Z,92.97
2022-10-25T09:28:39.790Z,93.26
2022-10-25T09:29:39.829Z,93.35
2022-10-25T09:30:39.860Z,92.68
2022-10-25T09:31:39.896Z,92.39
2022-10-25T09:32:39.930Z,92.49
2022-10-25T09:33:40.019Z,91.91
2022-10-25T09:34:39.999Z,92.01
2022-10-25T09:35:40.039Z,92.20
2022-10-25T09:36:40.069Z,92.77
2022-10-25T09:37:40.107Z,92.30
2022-10-25T09:38:40.141Z,91.67
2022-10-25T09:39:40.175Z,91.48
2022-10-25T09:40:45.214Z,91.67
2022-10-25T09:41:40.246Z,90.90
2022-10-25T09:42:40.276Z,89.94
2022-10-25T09:43:40.312Z,90.33
2022-10-25T09:44:40.347Z,90.04
2022-10-25T09:45:42.020Z,88.93
2022-10-25T09:46:40.416Z,88.84
2022-10-25T09:47:40.471Z,88.65
2022-10-25T09:48:40.493Z,88.35
2022-10-25T09:49:40.531Z,88.11
2022-10-25T09:50:40.560Z,86.58
2022-10-25T09:51:40.593Z,86.29
2022-10-25T09:52:40.633Z,86.00
2022-10-25T09:53:40.662Z,85.91
2022-10-25T09:54:40.696Z,85.91
2022-10-25T09:55:40.734Z,85.62
2022-10-25T09:56:40.766Z,86.29
2022-10-25T09:57:40.804Z,86.00
2022-10-25T09:58:40.837Z,85.62
2022-10-25T09:59:40.874Z,85.86
2022-10-25T10:00:40.910Z,86.63
2022-10-25T10:01:41.121Z,86.63
2022-10-25T10:02:41.058Z,87.11
2022-10-25T10:03:41.011Z,86.63
2022-10-25T10:04:41.045Z,87.68
2022-10-25T10:05:41.082Z,88.35
2022-10-25T10:06:41.117Z,88.22
2022-10-25T10:07:41.152Z,88.70
2022-10-25T10:08:41.187Z,88.31
2022-10-25T10:09:45.680Z,88.98
2022-10-25T10:10:41.258Z,88.70
2022-10-25T10:11:41.293Z,88.98
2022-10-25T10:12:41.329Z,88.60
2022-10-25T10:13:41.365Z,88.98
2022-10-25T10:14:41.396Z,88.89
2022-10-25T10:15:41.432Z,88.98
2022-10-25T10:16:41.469Z,89.27
2022-10-25T10:17:41.514Z,88.41
2022-10-25T10:18:41.535Z,88.60
2022-10-25T10:19:41.574Z,88.70
2022-10-25T10:20:41.610Z,88.98
2022-10-25T10:21:41.643Z,89.08
2022-10-25T10:24:34.709Z,88.70
2022-10-25T10:25:34.739Z,88.31
2022-10-25T10:27:27.937Z,88.60
2022-10-25T10:28:27.932Z,88.70
2022-10-25T10:30:20.963Z,88.56
2022-10-25T10:31:20.993Z,88.56
2022-10-25T10:33:14.066Z,89.23
2022-10-25T10:34:14.018Z,88.75
2022-10-25T10:35:14.046Z,88.65
2022-10-25T10:36:14.084Z,89.13
2022-10-25T10:37:14.114Z,89.13
2022-10-25T10:38:14.150Z,88.56
2022-10-25T10:39:14.185Z,88.51
2022-10-25T10:40:14.223Z,88.89
2022-10-25T10:41:14.254Z,88.98
2022-10-25T10:42:15.241Z,89.08
2022-10-25T10:43:14.335Z,88.70
2022-10-25T10:44:14.371Z,88.41
2022-10-25T10:45:14.394Z,88.60
2022-10-25T10:46:14.429Z,87.64
2022-10-25T10:47:14.465Z,86.58
2022-10-25T10:48:14.501Z,86.40
2022-10-25T10:49:14.535Z,87.07
2022-10-25T10:50:14.570Z,87.07
2022-10-25T10:51:38.975Z,87.07
2022-10-25T10:52:14.699Z,86.68
2022-10-25T10:53:14.675Z,86.78
2022-10-25T10:54:14.710Z,87.16
2022-10-25T10:55:14.744Z,87.74
2022-10-25T10:56:14.780Z,87.45
2022-10-25T10:57:14.814Z,87.45
2022-10-25T10:58:14.855Z,87.16
2022-10-25T10:59:14.888Z,87.64
2022-10-25T11:00:14.922Z,88.22
2022-10-25T11:01:15.043Z,88.22
2022-10-25T11:02:15.136Z,88.02
2022-10-25T11:03:15.024Z,87.35
2022-10-25T11:04:15.062Z,87.16
2022-10-25T11:05:15.094Z,87.16
2022-10-25T11:06:15.131Z,87.45
2022-10-25T11:07:15.167Z,87.55
2022-10-25T11:08:15.203Z,87.74
2022-10-25T11:09:15.235Z,87.68
2022-10-25T11:10:15.270Z,87.21
2022-10-25T11:11:15.309Z,86.54
2022-10-25T11:12:15.341Z,85.58
2022-10-25T11:13:15.375Z,85.67
2022-10-25T11:14:15.414Z,85.48
2022-10-25T11:15:15.449Z,85.48
2022-10-25T11:16:15.481Z,85.67
2022-10-25T11:17:15.514Z,85.24
2022-10-25T11:18:15.551Z,84.85
2022-10-25T11:19:15.586Z,85.24
2022-10-25T11:20:15.626Z,85.42
2022-10-25T11:21:15.758Z,85.28
2022-10-25T11:22:15.692Z,84.51
2022-10-25T11:23:15.729Z,81.57
2022-10-25T11:24:15.763Z,79.98
2022-10-25T11:25:15.802Z,79.35
2022-10-25T11:26:15.834Z,78.61
2022-10-25T11:27:15.870Z,76.69
2022-10-25T11:28:15.906Z,75.44
2022-10-25T11:29:15.943Z,75.44
2022-10-25T11:30:15.979Z,75.44
2022-10-25T11:31:16.026Z,75.44
2022-10-25T11:32:16.052Z,76.01
2022-10-25T11:33:16.088Z,75.79
2022-10-25T11:34:16.126Z,76.75
2022-10-25T11:35:16.161Z,76.75
2022-10-25T11:36:16.198Z,76.65
2022-10-25T11:37:16.331Z,76.26
2022-10-25T11:38:16.272Z,76.61
2022-10-25T11:39:16.307Z,77.48
2022-10-25T11:40:16.344Z,77.09
2022-10-25T11:41:16.380Z,77.76
2022-10-25T11:42:16.463Z,78.25
2022-10-25T11:43:16.454Z,77.86
2022-10-25T11:44:16.492Z,78.30
2022-10-25T11:45:16.579Z,77.53
2022-10-25T11:46:16.581Z,78.40
2022-10-25T11:47:16.602Z,78.88
2022-10-25T11:48:16.638Z,79.46
2022-10-25T11:49:16.672Z,79.27
2022-10-25T11:50:16.710Z,78.59
2022-10-25T11:51:16.745Z,79.55
2022-10-25T11:52:16.785Z,79.46
2022-10-25T11:53:16.919Z,78.53
2022-10-25T11:54:16.856Z,78.44
2022-10-25T11:55:17.025Z,77.58
2022-10-25T11:56:17.014Z,76.75
2022-10-25T11:57:17.080Z,76.84
2022-10-25T11:58:17.136Z,76.84
2022-10-25T11:59:17.396Z,75.88
2022-10-25T12:00:17.138Z,76.31
2022-10-25T12:01:17.163Z,75.73
2022-10-25T12:02:17.221Z,74.96
2022-10-25T12:03:17.185Z,75.15
2022-10-25T12:04:17.224Z,75.73
2022-10-25T12:05:17.258Z,74.96
2022-10-25T12:06:17.298Z,76.01
2022-10-25T12:07:17.332Z,74.54
2022-10-25T12:08:17.370Z,75.69
2022-10-25T12:09:17.503Z,75.31
2022-10-25T12:10:17.475Z,75.40
2022-10-25T12:11:18.896Z,75.59
2022-10-25T12:12:17.519Z,75.98
2022-10-25T12:13:17.554Z,76.75
2022-10-25T12:14:17.596Z,76.75
2022-10-25T12:15:17.628Z,75.40
2022-10-25T12:16:17.667Z,75.21
2022-10-25T12:17:17.719Z,74.82
2022-10-25T12:18:17.754Z,75.49
2022-10-25T12:19:17.808Z,75.27
2022-10-25T12:20:17.814Z,75.27
2022-10-25T12:21:17.851Z,76.42
2022-10-25T12:22:17.884Z,76.42
2022-10-25T12:23:17.930Z,77.09
2022-10-25T12:24:17.960Z,77.58
2022-10-25T12:25:18.095Z,76.67
2022-10-25T12:26:18.031Z,77.19
2022-10-25T12:27:18.068Z,77.06
2022-10-25T12:28:18.104Z,77.63
2022-10-25T12:29:18.145Z,77.83
2022-10-25T12:30:18.247Z,77.15
2022-10-25T12:31:18.218Z,76.96
2022-10-25T12:32:18.253Z,76.90
2022-10-25T12:33:18.287Z,76.71
2022-10-25T12:34:18.323Z,77.19
2022-10-25T12:35:18.361Z,76.00
2022-10-25T12:36:18.397Z,76.67
2022-10-25T12:37:18.439Z,76.67
2022-10-25T12:38:18.468Z,77.15
2022-10-25T12:39:18.506Z,77.44
2022-10-25T12:40:18.594Z,77.53
2022-10-25T12:41:18.824Z,78.59
2022-10-25T12:42:18.615Z,79.07
2022-10-25T12:43:18.652Z,78.44
2022-10-25T12:44:18.696Z,76.01
2022-10-25T12:45:18.726Z,71.22
2022-10-25T12:46:18.759Z,69.16
2022-10-25T12:47:18.798Z,65.85
2022-10-25T12:48:18.831Z,62.92
2022-10-25T12:49:18.911Z,62.34
2022-10-25T12:50:18.919Z,61.95
2022-10-25T12:51:19.077Z,60.60
2022-10-25T12:52:18.981Z,60.21
2022-10-25T12:53:19.019Z,61.63
2022-10-25T12:54:19.056Z,61.73
2022-10-25T12:55:19.095Z,61.02
2022-10-25T12:56:19.131Z,61.70
2022-10-25T12:57:19.272Z,62.54
2022-10-25T12:58:19.206Z,64.05
2022-10-25T12:59:19.249Z,63.37
2022-10-25T13:01:19.375Z,65.95
2022-10-25T13:02:19.357Z,66.39
2022-10-25T13:03:19.733Z,67.36
2022-10-25T13:04:19.432Z,67.61
2022-10-25T13:05:19.470Z,67.71
2022-10-25T13:06:19.508Z,67.33
2022-10-25T13:07:19.545Z,67.19
2022-10-25T13:08:19.583Z,67.49
2022-10-25T13:09:22.241Z,68.22
2022-10-25T13:10:19.708Z,69.28
2022-10-25T13:11:19.695Z,68.99
2022-10-25T13:12:19.742Z,69.34
2022-10-25T13:13:19.873Z,70.59
2022-10-25T13:14:19.805Z,70.30
2022-10-25T13:15:19.845Z,71.36
2022-10-25T13:16:19.880Z,72.03
2022-10-25T13:17:19.919Z,71.84
2022-10-25T13:18:22.303Z,71.75
2022-10-25T13:19:25.875Z,71.46
2022-10-25T13:20:20.076Z,72.03
2022-10-25T13:21:20.066Z,72.19
2022-10-25T13:22:20.102Z,72.86
2022-10-25T13:23:20.141Z,72.86
2022-10-25T13:24:20.177Z,72.67
2022-10-25T13:25:20.217Z,73.92
2022-10-25T13:26:20.250Z,73.83
2022-10-25T13:27:20.298Z,74.27
2022-10-25T13:28:20.324Z,73.98
2022-10-25T13:29:20.464Z,75.04
2022-10-25T13:30:20.404Z,74.94
2022-10-25T13:31:20.434Z,76.48
2022-10-25T13:32:20.474Z,77.06
2022-10-25T13:33:20.506Z,77.06
2022-10-25T13:34:20.542Z,77.50
2022-10-25T13:35:20.589Z,78.69
2022-10-25T13:36:20.618Z,78.40
2022-10-25T13:37:20.653Z,77.25
2022-10-25T13:38:20.688Z,77.44
2022-10-25T13:39:20.727Z,77.58
2022-10-25T13:40:20.764Z,76.52
2022-10-25T13:41:20.798Z,76.23
2022-10-25T13:42:20.915Z,75.75
2022-10-25T13:43:20.877Z,76.17
2022-10-25T13:44:20.908Z,76.14
2022-10-25T13:45:21.040Z,76.23
2022-10-25T13:46:20.981Z,76.42
2022-10-25T13:47:21.017Z,76.61
2022-10-25T13:48:21.052Z,76.75
2022-10-25T13:49:21.089Z,76.40
2022-10-25T13:50:21.128Z,74.26
2022-10-25T13:51:21.162Z,71.50
2022-10-25T13:52:21.198Z,70.09
2022-10-25T13:53:21.234Z,68.10
2022-10-25T13:54:21.270Z,68.13
2022-10-25T13:55:21.311Z,67.27
2022-10-25T13:56:21.381Z,66.59
2022-10-25T13:57:21.389Z,66.59
2022-10-25T13:58:21.418Z,66.11
2022-10-25T13:59:21.457Z,65.37
2022-10-25T14:00:21.512Z,65.17
2022-10-25T14:01:21.657Z,64.28
2022-10-25T14:02:21.686Z,64.86
2022-10-25T14:03:21.605Z,66.17
2022-10-25T14:04:21.643Z,66.66
2022-10-25T14:05:21.680Z,65.82
2022-10-25T14:06:21.718Z,65.88
2022-10-25T14:07:21.755Z,65.98
2022-10-25T14:08:21.793Z,66.24
2022-10-25T14:09:21.835Z,67.36
2022-10-25T14:10:21.876Z,68.13
2022-10-25T14:11:21.906Z,68.87
2022-10-25T14:12:21.943Z,69.64
2022-10-25T14:13:21.982Z,70.41
2022-10-25T14:14:22.018Z,71.24
2022-10-25T14:15:22.057Z,72.17
2022-10-25T14:16:22.093Z,72.36
2022-10-25T14:17:22.134Z,72.84
2022-10-25T14:18:22.168Z,73.13
2022-10-25T14:19:22.215Z,74.05
2022-10-25T14:20:22.242Z,74.25
2022-10-25T14:21:22.280Z,74.25
2022-10-25T14:22:22.327Z,74.50
2022-10-25T14:23:22.359Z,74.98
2022-10-25T14:24:22.401Z,75.46
2022-10-25T14:25:22.434Z,75.27
2022-10-25T14:26:22.466Z,76.19
2022-10-25T14:27:22.506Z,76.67
2022-10-25T14:28:22.543Z,76.48
2022-10-25T14:29:22.576Z,77.15
2022-10-25T14:30:22.620Z,77.25
2022-10-25T14:31:22.653Z,77.34
2022-10-25T14:32:22.688Z,77.83
2022-10-25T14:33:22.726Z,77.73
2022-10-25T14:34:22.764Z,77.15
2022-10-25T14:35:22.799Z,77.06
2022-10-25T14:36:22.836Z,77.34
2022-10-25T14:37:22.875Z,77.48
2022-10-25T14:38:22.909Z,77.19
2022-10-25T14:39:22.945Z,76.71
2022-10-25T14:40:22.994Z,76.71
2022-10-25T14:41:23.026Z,77.19
2022-10-25T14:42:23.056Z,78.06
2022-10-25T14:43:23.092Z,77.58
2022-10-25T14:44:23.128Z,77.09
2022-10-25T14:45:23.164Z,77.00
2022-10-25T14:46:23.203Z,76.71
2022-10-25T14:47:23.241Z,77.19
2022-10-25T14:48:23.276Z,77.19
2022-10-25T14:49:23.314Z,77.19
2022-10-25T14:50:23.348Z,76.90
2022-10-25T14:51:23.386Z,76.81
2022-10-25T14:52:23.421Z,76.61
2022-10-25T14:53:23.458Z,76.61
2022-10-25T14:54:23.495Z,76.90
2022-10-25T14:55:23.533Z,76.81
2022-10-25T14:56:23.570Z,76.23
2022-10-25T14:57:23.608Z,76.19
2022-10-25T14:58:23.641Z,76.86
2022-10-25T14:59:23.682Z,76.96
2022-10-25T15:00:23.765Z,77.34
2022-10-25T15:01:23.890Z,76.96
2022-10-25T15:02:23.788Z,77.15
2022-10-25T15:03:23.828Z,78.02
2022-10-25T15:04:23.862Z,78.02
2022-10-25T15:05:23.904Z,77.83
2022-10-25T15:06:23.938Z,77.53
2022-10-25T15:07:23.978Z,78.59
2022-10-25T15:08:24.010Z,78.02